sensor_id;sensor_type;location;lat;lon;timestamp;P1;durP1;ratioP1;P2;durP2;ratioP2
56116;SDS011;41989;45.356;20.392;2023-02-15T20:55:15;45.30;;;25.10;;
56116;SDS011;41989;45.356;20.392;2023-02-15T20:57:41;43.08;;;24.58;;
56116;SDS011;41989;45.356;20.392;2023-02-15T21:00:30;38.13;;;23.75;;
56116;SDS011;41989;45.356;20.392;2023-02-15T21:02:55;39.28;;;24.13;;
56116;SDS011;41989;45.356;20.392;2023-02-15T21:05:23;38.70;;;22.90;;
56116;SDS011;41989;45.356;20.392;2023-02-15T21:07:50;39.90;;;24.92;;
56116;SDS011;41989;45.356;20.392;2023-02-15T21:10:21;40.85;;;25.77;;
56116;SDS011;41989;45.356;20.392;2023-02-15T21:12:48;60.80;;;24.27;;
56116;SDS011;41989;45.356;20.392;2023-02-15T21:18:03;55.78;;;26.23;;
56116;SDS011;41989;45.356;20.392;2023-02-15T21:20:31;45.38;;;24.70;;
56116;SDS011;41989;45.356;20.392;2023-02-15T21:22:58;41.83;;;25.55;;
56116;SDS011;41989;45.356;20.392;2023-02-15T21:25:26;42.05;;;25.02;;
56116;SDS011;41989;45.356;20.392;2023-02-15T21:27:54;43.95;;;25.40;;
56116;SDS011;41989;45.356;20.392;2023-02-15T21:30:20;44.35;;;24.08;;
56116;SDS011;41989;45.356;20.392;2023-02-15T21:35:27;127.25;;;94.40;;
56116;SDS011;41989;45.356;20.392;2023-02-15T21:37:53;151.98;;;110.93;;
56116;SDS011;41989;45.356;20.392;2023-02-15T21:40:25;149.05;;;105.72;;
56116;SDS011;41989;45.356;20.392;2023-02-15T21:42:52;150.10;;;101.80;;
56116;SDS011;41989;45.356;20.392;2023-02-15T21:45:36;138.60;;;94.38;;
56116;SDS011;41989;45.356;20.392;2023-02-15T21:48:21;127.80;;;84.28;;
56116;SDS011;41989;45.356;20.392;2023-02-15T21:50:50;107.07;;;71.50;;
56116;SDS011;41989;45.356;20.392;2023-02-15T21:53:36;104.40;;;65.82;;
56116;SDS011;41989;45.356;20.392;2023-02-15T21:56:09;105.05;;;63.15;;
56116;SDS011;41989;45.356;20.392;2023-02-15T21:58:38;101.43;;;61.25;;
56116;SDS011;41989;45.356;20.392;2023-02-15T22:01:04;98.63;;;58.38;;
56116;SDS011;41989;45.356;20.392;2023-02-15T22:03:35;97.65;;;56.58;;
56116;SDS011;41989;45.356;20.392;2023-02-15T22:06:02;88.93;;;53.60;;
56116;SDS011;41989;45.356;20.392;2023-02-15T22:08:28;81.10;;;46.63;;
56116;SDS011;41989;45.356;20.392;2023-02-15T22:10:55;64.63;;;40.08;;
56116;SDS011;41989;45.356;20.392;2023-02-15T22:13:27;76.57;;;40.85;;
56116;SDS011;41989;45.356;20.392;2023-02-15T22:15:54;74.43;;;42.17;;
56116;SDS011;41989;45.356;20.392;2023-02-15T22:18:22;68.90;;;40.08;;
56116;SDS011;41989;45.356;20.392;2023-02-15T22:20:49;68.30;;;39.65;;
56116;SDS011;41989;45.356;20.392;2023-02-15T22:23:15;70.45;;;41.55;;
56116;SDS011;41989;45.356;20.392;2023-02-15T22:25:41;62.83;;;38.47;;
56116;SDS011;41989;45.356;20.392;2023-02-15T22:28:11;70.43;;;39.97;;
56116;SDS011;41989;45.356;20.392;2023-02-15T22:30:41;65.75;;;39.08;;
56116;SDS011;41989;45.356;20.392;2023-02-15T22:33:13;65.72;;;40.35;;
56116;SDS011;41989;45.356;20.392;2023-02-15T22:35:47;68.70;;;41.33;;
56116;SDS011;41989;45.356;20.392;2023-02-15T22:38:13;75.72;;;44.65;;
56116;SDS011;41989;45.356;20.392;2023-02-15T22:40:40;72.05;;;42.30;;
56116;SDS011;41989;45.356;20.392;2023-02-15T22:43:06;72.82;;;45.28;;
56116;SDS011;41989;45.356;20.392;2023-02-15T22:45:38;79.32;;;46.38;;
56116;SDS011;41989;45.356;20.392;2023-02-15T22:48:04;89.18;;;51.85;;
56116;SDS011;41989;45.356;20.392;2023-02-15T22:50:31;90.88;;;50.97;;
56116;SDS011;41989;45.356;20.392;2023-02-15T22:52:58;85.28;;;50.33;;
56116;SDS011;41989;45.356;20.392;2023-02-15T22:55:25;90.18;;;48.70;;
56116;SDS011;41989;45.356;20.392;2023-02-15T22:57:53;77.43;;;44.60;;
56116;SDS011;41989;45.356;20.392;2023-02-15T23:00:21;84.88;;;48.45;;
56116;SDS011;41989;45.356;20.392;2023-02-15T23:02:48;87.15;;;50.05;;
56116;SDS011;41989;45.356;20.392;2023-02-15T23:05:25;92.05;;;51.67;;
56116;SDS011;41989;45.356;20.392;2023-02-15T23:07:51;92.43;;;52.58;;
56116;SDS011;41989;45.356;20.392;2023-02-15T23:10:18;93.55;;;51.85;;
56116;SDS011;41989;45.356;20.392;2023-02-15T23:12:48;94.57;;;50.55;;
56116;SDS011;41989;45.356;20.392;2023-02-15T23:15:34;86.32;;;47.70;;
56116;SDS011;41989;45.356;20.392;2023-02-15T23:20:42;87.75;;;46.90;;
56116;SDS011;41989;45.356;20.392;2023-02-15T23:23:09;80.45;;;45.83;;
56116;SDS011;41989;45.356;20.392;2023-02-15T23:25:35;81.65;;;45.45;;
56116;SDS011;41989;45.356;20.392;2023-02-15T23:28:02;81.85;;;44.97;;
56116;SDS011;41989;45.356;20.392;2023-02-15T23:30:31;85.25;;;47.47;;
56116;SDS011;41989;45.356;20.392;2023-02-15T23:32:57;84.30;;;47.75;;
56116;SDS011;41989;45.356;20.392;2023-02-15T23:35:23;83.82;;;46.25;;
56116;SDS011;41989;45.356;20.392;2023-02-15T23:37:49;84.80;;;47.15;;
56116;SDS011;41989;45.356;20.392;2023-02-15T23:40:16;91.68;;;47.10;;
56116;SDS011;41989;45.356;20.392;2023-02-15T23:43:01;86.40;;;47.70;;
56116;SDS011;41989;45.356;20.392;2023-02-15T23:45:27;93.45;;;47.35;;
56116;SDS011;41989;45.356;20.392;2023-02-15T23:47:54;84.25;;;47.13;;
56116;SDS011;41989;45.356;20.392;2023-02-15T23:50:39;86.95;;;47.53;;
56116;SDS011;41989;45.356;20.392;2023-02-15T23:53:06;85.75;;;48.95;;
56116;SDS011;41989;45.356;20.392;2023-02-15T23:55:33;82.47;;;47.45;;
56116;SDS011;41989;45.356;20.392;2023-02-15T23:58:00;89.72;;;50.25;;
